Buckland Airport Buckland US
ICAO: PABL
IATA:
Category: Medium
Scheduled Services:

Elevation: 31 ft
TransAlt. 18000 ft.

Airport Communications:
AWOS 3:135.15
ANCHORAGE APP/DEP:119.2
CTAF:122.9
KOTZEBUE RDO:122.3

PABL Zoom In..

If you have problems with the map follow the link
https://www.worldairports.se/pages/airport.php?
ICAO=PABL

Runways:

(A) RW 11 length 3200 ft width 75 ft
---- / hdg 107

(B) RW 29 length 3200 ft width 75 ft
---- / hdg 287

Location; PABL
Day. 23 / Time. 05.56 Zulu
* Altimeter: 29.56
* Temperature: -02° c. -28.4°f.
* Wind from: 000° Speed 00 kn.
Dewpoint: -03° c.
Visibility: 10 Statute Miles.
Clouds: Few 7000 ft.
Clouds: Overcast 9000 ft.

PABL 230556Z AUTO 00000KT 10SM FEW070 OVC090 M02/M03 A2956 RMK AO2 SLP012 T10221028 10006 21022 55000 FZRANO


Wind - Calm.

 
 
jpsmedia.com for Web Design worldairports.se 2018   terms of use